Leskovac, Serbia
Current Conditions -  °F | °C
As of 5:00 PM on Friday 19 Dec 2014 (Local Time) from LYNI Reporting Station
Clear Clear  
Wind Chill: 48°   Ceiling: Unl
Heat Index: 48°   Visibility: 6mi
Dew Point: 41°   Wind: 1mph
Humidity: 76%   Direction: 70°ENE
Pressure: 30.15"   Gusts: NA
Location:  43°N, 21.95°E
Report Text: LYNI 191500Z 07001KT CAVOK 09/05 Q1021 NOSIG
Loading
Personal Weather Stations






























Interactive Weather Map New forecast layout! Learn more

10-Day Weather Forecast

Advertisements
Track Severe Weather on mobile